createdAt,value
2022-11-03T00:00:41.451Z,997.18
2022-11-03T00:01:41.573Z,997.07
2022-11-03T00:02:41.473Z,997.05
2022-11-03T00:03:41.449Z,997.06
2022-11-03T00:04:41.398Z,997.05
2022-11-03T00:05:41.394Z,996.97
2022-11-03T00:06:41.390Z,997.00
2022-11-03T00:07:41.384Z,997.01
2022-11-03T00:08:41.381Z,996.99
2022-11-03T00:09:41.356Z,996.95
2022-11-03T00:10:41.351Z,996.94
2022-11-03T00:11:41.346Z,996.91
2022-11-03T00:12:41.332Z,996.88
2022-11-03T00:13:41.329Z,996.85
2022-11-03T00:14:41.303Z,996.86
2022-11-03T00:15:41.296Z,996.82
2022-11-03T00:16:41.273Z,996.88
2022-11-03T00:17:41.271Z,996.85
2022-11-03T00:18:41.276Z,996.81
2022-11-03T00:19:41.255Z,996.78
2022-11-03T00:20:41.235Z,996.78
2022-11-03T00:21:41.225Z,996.81
2022-11-03T00:22:41.215Z,996.81
2022-11-03T00:23:41.225Z,996.75
2022-11-03T00:24:41.185Z,996.78
2022-11-03T00:25:41.179Z,996.72
2022-11-03T00:26:41.170Z,996.75
2022-11-03T00:27:41.164Z,996.80
2022-11-03T00:28:41.158Z,996.77
2022-11-03T00:29:41.135Z,996.80
2022-11-03T00:30:41.133Z,996.83
2022-11-03T00:31:41.104Z,996.84
2022-11-03T00:32:42.100Z,996.77
2022-11-03T00:33:41.116Z,996.83
2022-11-03T00:34:41.089Z,996.82
2022-11-03T00:35:41.069Z,996.78
2022-11-03T00:36:41.060Z,996.84
2022-11-03T00:37:41.051Z,996.78
2022-11-03T00:38:41.057Z,996.82
2022-11-03T00:39:41.032Z,996.82
2022-11-03T00:40:41.022Z,996.80
2022-11-03T00:41:40.999Z,996.78
2022-11-03T00:42:40.997Z,996.74
2022-11-03T00:43:41.005Z,996.70
2022-11-03T00:44:40.983Z,996.71
2022-11-03T00:45:40.959Z,996.67
2022-11-03T00:46:40.953Z,996.60
2022-11-03T00:47:40.964Z,996.67
2022-11-03T00:48:40.950Z,996.61
2022-11-03T00:49:40.915Z,996.61
2022-11-03T00:50:40.904Z,996.53
2022-11-03T00:51:40.902Z,996.58
2022-11-03T00:52:40.892Z,996.56
2022-11-03T00:53:40.894Z,996.51
2022-11-03T00:54:44.811Z,996.55
2022-11-03T00:55:40.856Z,996.54
2022-11-03T00:56:40.846Z,996.59
2022-11-03T00:57:40.831Z,996.55
2022-11-03T00:58:40.839Z,996.56
2022-11-03T00:59:40.807Z,996.56
2022-11-03T01:00:40.800Z,996.42
2022-11-03T01:01:45.168Z,996.42
2022-11-03T01:02:40.819Z,996.45
2022-11-03T01:03:40.788Z,996.43
2022-11-03T01:04:40.753Z,996.46
2022-11-03T01:05:40.732Z,996.44
2022-11-03T01:06:40.733Z,996.44
2022-11-03T01:07:40.721Z,996.55
2022-11-03T01:08:40.735Z,996.41
2022-11-03T01:09:40.694Z,996.53
2022-11-03T01:10:40.684Z,996.42
2022-11-03T01:11:40.674Z,996.44
2022-11-03T01:12:40.664Z,996.46
2022-11-03T01:13:41.690Z,996.45
2022-11-03T01:14:40.645Z,996.44
2022-11-03T01:15:40.631Z,996.42
2022-11-03T01:16:40.616Z,996.50
2022-11-03T01:17:40.599Z,996.47
2022-11-03T01:18:40.615Z,996.44
2022-11-03T01:19:40.589Z,996.51
2022-11-03T01:20:40.574Z,996.45
2022-11-03T01:21:40.567Z,996.36
2022-11-03T01:22:40.589Z,996.34
2022-11-03T01:23:41.554Z,996.31
2022-11-03T01:24:40.533Z,996.31
2022-11-03T01:25:40.523Z,996.28
2022-11-03T01:26:40.507Z,996.26
2022-11-03T01:27:40.497Z,996.24
2022-11-03T01:28:40.503Z,996.21
2022-11-03T01:29:40.479Z,996.23
2022-11-03T01:30:40.459Z,996.16
2022-11-03T01:31:40.455Z,996.20
2022-11-03T01:32:40.443Z,996.22
2022-11-03T01:33:40.443Z,996.18
2022-11-03T01:34:40.420Z,996.13
2022-11-03T01:35:40.411Z,996.15
2022-11-03T01:36:40.397Z,996.06
2022-11-03T01:37:40.394Z,996.00
2022-11-03T01:38:40.397Z,995.90
2022-11-03T01:39:40.367Z,995.81
2022-11-03T01:40:40.357Z,995.77
2022-11-03T01:41:40.347Z,995.73
2022-11-03T01:42:40.339Z,995.66
2022-11-03T01:43:40.341Z,995.67
2022-11-03T01:44:40.315Z,995.68
2022-11-03T01:45:40.291Z,995.68
2022-11-03T01:46:40.288Z,995.73
2022-11-03T01:47:40.286Z,995.73
2022-11-03T01:48:40.290Z,995.73
2022-11-03T01:49:40.262Z,995.69
2022-11-03T01:50:40.253Z,995.73
2022-11-03T01:51:40.244Z,995.74
2022-11-03T01:52:40.225Z,995.67
2022-11-03T01:53:40.237Z,995.67
2022-11-03T01:54:40.213Z,995.64
2022-11-03T01:55:40.201Z,995.63
2022-11-03T01:56:40.199Z,995.54
2022-11-03T01:57:40.170Z,995.64
2022-11-03T01:58:40.172Z,995.67
2022-11-03T01:59:40.155Z,995.64
2022-11-03T02:00:40.134Z,995.65
2022-11-03T02:01:40.251Z,995.62
2022-11-03T02:02:40.120Z,995.69
2022-11-03T02:03:40.124Z,995.65
2022-11-03T02:04:40.096Z,995.68
2022-11-03T02:05:40.091Z,995.71
2022-11-03T02:06:40.076Z,995.69
2022-11-03T02:07:40.068Z,995.74
2022-11-03T02:08:40.087Z,995.72
2022-11-03T02:09:40.038Z,995.74
2022-11-03T02:10:40.038Z,995.66
2022-11-03T02:11:40.028Z,995.68
2022-11-03T02:12:40.004Z,995.66
2022-11-03T02:13:40.016Z,995.65
2022-11-03T02:14:39.985Z,995.61
2022-11-03T02:15:39.980Z,995.54
2022-11-03T02:16:42.603Z,995.57
2022-11-03T02:17:40.964Z,995.48
2022-11-03T02:18:39.968Z,995.54
2022-11-03T02:19:39.971Z,995.50
2022-11-03T02:20:39.921Z,995.45
2022-11-03T02:21:39.912Z,995.42
2022-11-03T02:22:39.906Z,995.46
2022-11-03T02:23:39.915Z,995.49
2022-11-03T02:24:39.871Z,995.46
2022-11-03T02:25:39.874Z,995.43
2022-11-03T02:26:39.854Z,995.42
2022-11-03T02:27:40.847Z,995.39
2022-11-03T02:28:39.894Z,995.39
2022-11-03T02:29:39.832Z,995.34
2022-11-03T02:30:39.824Z,995.36
2022-11-03T02:31:39.811Z,995.36
2022-11-03T02:32:39.800Z,995.33
2022-11-03T02:33:39.807Z,995.31
2022-11-03T02:34:39.775Z,995.32
2022-11-03T02:35:39.766Z,995.28
2022-11-03T02:36:39.742Z,995.35
2022-11-03T02:37:39.740Z,995.28
2022-11-03T02:38:39.747Z,995.29
2022-11-03T02:39:39.721Z,995.31
2022-11-03T02:40:39.708Z,995.32
2022-11-03T02:41:39.698Z,995.26
2022-11-03T02:42:39.685Z,995.32
2022-11-03T02:43:39.694Z,995.33
2022-11-03T02:44:39.667Z,995.34
2022-11-03T02:45:39.655Z,995.32
2022-11-03T02:46:40.650Z,995.26
2022-11-03T02:47:39.633Z,995.26
2022-11-03T02:48:39.644Z,995.26
2022-11-03T02:49:39.611Z,995.24
2022-11-03T02:50:39.600Z,995.26
2022-11-03T02:51:39.589Z,995.25
2022-11-03T02:52:39.578Z,995.22
2022-11-03T02:53:39.592Z,995.26
2022-11-03T02:54:39.560Z,995.26
2022-11-03T02:55:39.553Z,995.23
2022-11-03T02:56:39.540Z,995.25
2022-11-03T02:57:39.540Z,995.21
2022-11-03T02:58:39.540Z,995.21
2022-11-03T02:59:39.506Z,995.18
2022-11-03T03:00:39.506Z,995.11
2022-11-03T03:01:39.709Z,995.16
2022-11-03T03:02:39.481Z,995.16
2022-11-03T03:03:39.489Z,995.12
2022-11-03T03:04:39.480Z,995.16
2022-11-03T03:05:39.446Z,995.16
2022-11-03T03:06:39.440Z,995.11
2022-11-03T03:07:39.432Z,995.04
2022-11-03T03:08:39.457Z,995.06
2022-11-03T03:09:39.400Z,995.08
2022-11-03T03:10:39.399Z,995.11
2022-11-03T03:11:39.695Z,995.05
2022-11-03T03:12:39.378Z,995.06
2022-11-03T03:13:39.385Z,995.06
2022-11-03T03:14:39.359Z,995.09
2022-11-03T03:15:39.351Z,995.03
2022-11-03T03:16:39.334Z,994.99
2022-11-03T03:17:39.327Z,994.99
2022-11-03T03:18:39.329Z,995.02
2022-11-03T03:19:39.309Z,995.00
2022-11-03T03:20:39.297Z,995.02
2022-11-03T03:21:39.286Z,995.00
2022-11-03T03:22:39.282Z,994.98
2022-11-03T03:23:39.291Z,994.99
2022-11-03T03:24:39.250Z,995.01
2022-11-03T03:25:39.246Z,994.98
2022-11-03T03:26:39.242Z,994.97
2022-11-03T03:27:39.227Z,994.97
2022-11-03T03:28:39.230Z,994.95
2022-11-03T03:29:39.204Z,994.93
2022-11-03T03:30:39.201Z,994.96
2022-11-03T03:31:39.189Z,994.96
2022-11-03T03:32:39.169Z,994.98
2022-11-03T03:33:41.945Z,994.94
2022-11-03T03:34:40.191Z,994.95
2022-11-03T03:35:39.147Z,994.92
2022-11-03T03:36:39.143Z,994.95
2022-11-03T03:37:39.130Z,994.91
2022-11-03T03:38:39.123Z,994.88
2022-11-03T03:39:39.131Z,994.93
2022-11-03T03:40:39.101Z,994.92
2022-11-03T03:41:39.087Z,994.76
2022-11-03T03:42:39.079Z,994.85
2022-11-03T03:43:39.060Z,994.81
2022-11-03T03:44:39.075Z,994.85
2022-11-03T03:45:39.041Z,994.76
2022-11-03T03:46:39.032Z,994.76
2022-11-03T03:47:39.027Z,994.84
2022-11-03T03:48:39.011Z,994.71
2022-11-03T03:49:39.023Z,994.69
2022-11-03T03:50:38.982Z,994.67
2022-11-03T03:51:39.978Z,994.66
2022-11-03T03:52:38.972Z,994.60
2022-11-03T03:53:38.970Z,994.57
2022-11-03T03:54:38.971Z,994.64
2022-11-03T03:55:38.949Z,994.62
2022-11-03T03:56:38.938Z,994.64
2022-11-03T03:57:38.924Z,994.58
2022-11-03T03:58:38.907Z,994.60
2022-11-03T03:59:38.920Z,994.66
2022-11-03T04:00:38.883Z,994.57
2022-11-03T04:01:39.010Z,994.55
2022-11-03T04:02:38.938Z,994.56
2022-11-03T04:03:38.864Z,994.57
2022-11-03T04:04:38.870Z,994.53
2022-11-03T04:05:38.839Z,994.51
2022-11-03T04:06:38.823Z,994.55
2022-11-03T04:07:42.628Z,994.44
2022-11-03T04:08:39.794Z,994.43
2022-11-03T04:09:38.800Z,994.46
2022-11-03T04:10:38.787Z,994.41
2022-11-03T04:11:38.772Z,994.47
2022-11-03T04:12:38.763Z,994.38
2022-11-03T04:13:38.749Z,994.37
2022-11-03T04:14:38.763Z,994.30
2022-11-03T04:15:38.729Z,994.30
2022-11-03T04:16:38.724Z,994.31
2022-11-03T04:17:38.802Z,994.23
2022-11-03T04:18:38.704Z,994.30
2022-11-03T04:19:38.715Z,994.23
2022-11-03T04:20:38.672Z,994.24
2022-11-03T04:21:38.668Z,994.23
2022-11-03T04:22:38.658Z,994.15
2022-11-03T04:23:38.646Z,994.23
2022-11-03T04:24:38.654Z,994.21
2022-11-03T04:25:38.631Z,994.15
2022-11-03T04:26:38.620Z,994.17
2022-11-03T04:27:38.608Z,994.15
2022-11-03T04:28:38.593Z,994.20
2022-11-03T04:29:38.599Z,994.20
2022-11-03T04:30:38.574Z,994.10
2022-11-03T04:31:38.570Z,994.13
2022-11-03T04:32:38.555Z,994.16
2022-11-03T04:33:38.557Z,994.14
2022-11-03T04:34:38.548Z,994.13
2022-11-03T04:35:38.519Z,994.11
2022-11-03T04:36:38.503Z,994.06
2022-11-03T04:37:38.505Z,994.15
2022-11-03T04:38:38.487Z,994.06
2022-11-03T04:39:38.564Z,994.11
2022-11-03T04:40:38.471Z,994.02
2022-11-03T04:41:38.468Z,994.04
2022-11-03T04:42:38.454Z,993.97
2022-11-03T04:43:38.445Z,994.04
2022-11-03T04:44:38.453Z,994.03
2022-11-03T04:45:38.422Z,993.98
2022-11-03T04:46:38.419Z,994.00
2022-11-03T04:47:38.402Z,993.99
2022-11-03T04:48:38.388Z,993.96
2022-11-03T04:49:38.401Z,993.94
2022-11-03T04:50:41.699Z,993.93
2022-11-03T04:51:39.362Z,993.93
2022-11-03T04:52:38.347Z,993.95
2022-11-03T04:53:38.339Z,993.89
2022-11-03T04:54:38.352Z,993.90
2022-11-03T04:55:38.323Z,993.89
2022-11-03T04:56:38.300Z,993.93
2022-11-03T04:57:38.289Z,993.87
2022-11-03T04:58:38.290Z,993.82
2022-11-03T04:59:38.303Z,993.79
2022-11-03T05:00:38.263Z,993.83
2022-11-03T05:01:38.374Z,993.75
2022-11-03T05:02:38.246Z,993.82
2022-11-03T05:03:38.237Z,993.83
2022-11-03T05:04:38.276Z,993.76
2022-11-03T05:05:38.207Z,993.81
2022-11-03T05:06:38.207Z,993.80
2022-11-03T05:07:38.188Z,993.82
2022-11-03T05:08:38.179Z,993.79
2022-11-03T05:09:42.667Z,993.77
2022-11-03T05:10:38.174Z,993.79
2022-11-03T05:11:38.151Z,993.71
2022-11-03T05:12:38.139Z,993.70
2022-11-03T05:13:38.131Z,993.71
2022-11-03T05:14:38.133Z,993.71
2022-11-03T05:15:38.120Z,993.67
2022-11-03T05:16:38.088Z,993.67
2022-11-03T05:17:38.083Z,993.69
2022-11-03T05:18:38.083Z,993.70
2022-11-03T05:19:38.088Z,993.73
2022-11-03T05:20:38.051Z,993.67
2022-11-03T05:21:39.043Z,993.69
2022-11-03T05:22:38.029Z,993.65
2022-11-03T05:23:38.026Z,993.67
2022-11-03T05:24:38.022Z,993.61
2022-11-03T05:25:38.002Z,993.69
2022-11-03T05:26:37.989Z,993.66
2022-11-03T05:27:37.989Z,993.59
2022-11-03T05:28:37.968Z,993.61
2022-11-03T05:29:37.990Z,993.57
2022-11-03T05:30:37.961Z,993.53
2022-11-03T05:31:37.953Z,993.51
2022-11-03T05:32:37.934Z,993.51
2022-11-03T05:33:37.929Z,993.47
2022-11-03T05:34:37.942Z,993.47
2022-11-03T05:35:37.900Z,993.55
2022-11-03T05:36:37.882Z,993.48
2022-11-03T05:37:37.878Z,993.48
2022-11-03T05:38:38.884Z,993.50
2022-11-03T05:39:37.882Z,993.47
2022-11-03T05:40:37.853Z,993.47
2022-11-03T05:41:37.844Z,993.42
2022-11-03T05:42:37.830Z,993.44
2022-11-03T05:43:37.822Z,993.41
2022-11-03T05:44:37.828Z,993.47
2022-11-03T05:45:37.801Z,993.33
2022-11-03T05:46:37.804Z,993.36
2022-11-03T05:47:56.237Z,993.41
2022-11-03T05:48:37.772Z,993.38
2022-11-03T05:49:37.783Z,993.37
2022-11-03T05:50:37.757Z,993.37
2022-11-03T05:51:37.743Z,993.35
2022-11-03T05:52:37.723Z,993.40
2022-11-03T05:53:37.714Z,993.36
2022-11-03T05:54:37.729Z,993.33
2022-11-03T05:55:37.694Z,993.36
2022-11-03T05:56:37.686Z,993.32
2022-11-03T05:57:37.682Z,993.34
2022-11-03T05:58:37.713Z,993.40
2022-11-03T05:59:37.681Z,993.39
2022-11-03T06:00:37.662Z,993.41
2022-11-03T06:01:37.697Z,993.39
2022-11-03T06:02:37.662Z,993.45
2022-11-03T06:03:37.609Z,993.38
2022-11-03T06:04:37.627Z,993.40
2022-11-03T06:05:37.596Z,993.43
2022-11-03T06:06:37.582Z,993.40
2022-11-03T06:07:38.574Z,993.36
2022-11-03T06:08:40.191Z,993.40
2022-11-03T06:09:38.580Z,993.36
2022-11-03T06:10:37.539Z,993.39
2022-11-03T06:11:37.558Z,993.37
2022-11-03T06:12:37.527Z,993.37
2022-11-03T06:13:37.504Z,993.41
2022-11-03T06:14:37.500Z,993.38
2022-11-03T06:15:37.514Z,993.37
2022-11-03T06:16:37.492Z,993.41
2022-11-03T06:17:37.478Z,993.37
2022-11-03T06:18:37.458Z,993.41
2022-11-03T06:19:37.446Z,993.37
2022-11-03T06:20:37.448Z,993.38
2022-11-03T06:21:41.821Z,993.35
2022-11-03T06:22:39.451Z,993.35
2022-11-03T06:23:37.413Z,993.33
2022-11-03T06:24:37.393Z,993.38
2022-11-03T06:25:37.406Z,993.43
2022-11-03T06:26:37.382Z,993.41
2022-11-03T06:27:37.358Z,993.41
2022-11-03T06:28:38.357Z,993.40
2022-11-03T06:29:37.349Z,993.35
2022-11-03T06:30:37.367Z,993.33
2022-11-03T06:31:37.319Z,993.34
2022-11-03T06:32:37.304Z,993.32
2022-11-03T06:33:37.298Z,993.33
2022-11-03T06:34:37.291Z,993.31
2022-11-03T06:35:37.337Z,993.35
2022-11-03T06:36:37.271Z,993.33
2022-11-03T06:37:37.257Z,993.37
2022-11-03T06:38:37.253Z,993.29
2022-11-03T06:39:37.242Z,993.37
2022-11-03T06:40:37.249Z,993.41
2022-11-03T06:41:37.215Z,993.34
2022-11-03T06:42:37.227Z,993.33
2022-11-03T06:43:37.199Z,993.37
2022-11-03T06:44:37.185Z,993.32
2022-11-03T06:45:37.188Z,993.36
2022-11-03T06:46:37.162Z,993.39
2022-11-03T06:47:37.154Z,993.41
2022-11-03T06:48:37.142Z,993.33
2022-11-03T06:49:37.138Z,993.37
2022-11-03T06:50:40.901Z,993.34
2022-11-03T06:51:38.109Z,993.34
2022-11-03T06:52:37.175Z,993.33
2022-11-03T06:53:37.123Z,993.28
2022-11-03T06:54:37.081Z,993.29
2022-11-03T06:55:37.087Z,993.26
2022-11-03T06:56:37.048Z,993.19
2022-11-03T06:57:37.045Z,993.25
2022-11-03T06:58:37.032Z,993.11
2022-11-03T06:59:37.030Z,993.14
2022-11-03T07:00:39.897Z,993.12
2022-11-03T07:01:38.095Z,993.16
2022-11-03T07:02:37.067Z,993.11
2022-11-03T07:03:36.984Z,993.14
2022-11-03T07:04:36.975Z,993.11
2022-11-03T07:05:36.985Z,993.15
2022-11-03T07:06:36.958Z,993.05
2022-11-03T07:07:36.946Z,993.05
2022-11-03T07:08:36.936Z,993.05
2022-11-03T07:09:36.935Z,993.01
2022-11-03T07:10:36.958Z,993.00
2022-11-03T07:11:36.909Z,992.97
2022-11-03T07:12:36.896Z,992.96
2022-11-03T07:13:36.894Z,992.94
2022-11-03T07:14:36.872Z,992.95
2022-11-03T07:15:36.879Z,993.00
2022-11-03T07:16:36.854Z,992.98
2022-11-03T07:17:36.845Z,992.95
2022-11-03T07:18:36.832Z,992.91
2022-11-03T07:19:36.822Z,992.91
2022-11-03T07:20:36.825Z,992.87
2022-11-03T07:21:36.800Z,992.90
2022-11-03T07:22:36.793Z,992.90
2022-11-03T07:23:36.781Z,992.91
2022-11-03T07:24:36.788Z,992.87
2022-11-03T07:25:36.752Z,992.85
2022-11-03T07:26:36.754Z,992.82
2022-11-03T07:27:36.738Z,992.89
2022-11-03T07:28:36.735Z,992.80
2022-11-03T07:29:36.739Z,992.79
2022-11-03T07:30:36.721Z,992.76
2022-11-03T07:31:36.701Z,992.76
2022-11-03T07:32:36.712Z,992.79
2022-11-03T07:33:36.693Z,992.74
2022-11-03T07:34:36.669Z,992.67
2022-11-03T07:36:00.421Z,992.65
2022-11-03T07:36:38.650Z,992.74
2022-11-03T07:37:36.639Z,992.68
2022-11-03T07:38:36.640Z,992.69
2022-11-03T07:39:36.629Z,992.68
2022-11-03T07:40:36.630Z,992.58
2022-11-03T07:41:36.603Z,992.61
2022-11-03T07:42:36.595Z,992.58
2022-11-03T07:43:36.581Z,992.56
2022-11-03T07:44:36.572Z,992.45
2022-11-03T07:45:36.574Z,992.44
2022-11-03T07:46:36.557Z,992.45
2022-11-03T07:47:36.550Z,992.49
2022-11-03T07:48:36.536Z,992.53
2022-11-03T07:49:36.537Z,992.48
2022-11-03T07:50:36.538Z,992.50
2022-11-03T07:51:36.501Z,992.48
2022-11-03T07:52:36.498Z,992.42
2022-11-03T07:53:36.491Z,992.45
2022-11-03T07:54:36.479Z,992.42
2022-11-03T07:55:36.484Z,992.41
2022-11-03T07:56:36.613Z,992.37
2022-11-03T07:57:36.466Z,992.36
2022-11-03T07:58:36.441Z,992.28
2022-11-03T07:59:36.425Z,992.32
2022-11-03T08:00:36.432Z,992.31
2022-11-03T08:01:36.576Z,992.23
2022-11-03T08:02:36.437Z,992.25
2022-11-03T08:03:36.373Z,992.24
2022-11-03T08:04:36.380Z,992.24
2022-11-03T08:05:36.390Z,992.18
2022-11-03T08:06:36.365Z,992.25
2022-11-03T08:07:36.340Z,992.16
2022-11-03T08:08:36.338Z,992.15
2022-11-03T08:09:36.336Z,992.14
2022-11-03T08:10:36.341Z,992.12
2022-11-03T08:11:36.305Z,992.11
2022-11-03T08:12:36.296Z,992.04
2022-11-03T08:13:36.288Z,992.00
2022-11-03T08:14:36.289Z,991.98
2022-11-03T08:15:36.301Z,992.01
2022-11-03T08:16:36.259Z,992.04
2022-11-03T08:17:36.253Z,991.94
2022-11-03T08:18:36.261Z,991.95
2022-11-03T08:19:36.224Z,992.01
2022-11-03T08:20:36.236Z,991.96
2022-11-03T08:21:36.214Z,991.91
2022-11-03T08:22:36.204Z,991.96
2022-11-03T08:23:36.183Z,991.94
2022-11-03T08:24:36.186Z,991.98
2022-11-03T08:25:36.195Z,991.96
2022-11-03T08:26:36.170Z,991.98
2022-11-03T08:27:36.153Z,991.93
2022-11-03T08:28:36.147Z,991.90
2022-11-03T08:29:36.132Z,991.83
2022-11-03T08:30:36.142Z,991.81
2022-11-03T08:31:36.127Z,991.74
2022-11-03T08:32:36.103Z,991.79
2022-11-03T08:33:36.094Z,991.76
2022-11-03T08:34:36.089Z,991.75
2022-11-03T08:35:36.092Z,991.69
2022-11-03T08:36:36.069Z,991.70
2022-11-03T08:37:36.061Z,991.74
2022-11-03T08:38:36.109Z,991.71
2022-11-03T08:39:36.035Z,991.68
2022-11-03T08:40:36.048Z,991.66
2022-11-03T08:41:36.020Z,991.60
2022-11-03T08:42:36.011Z,991.60
2022-11-03T08:43:36.034Z,991.53
2022-11-03T08:44:35.990Z,991.52
2022-11-03T08:45:35.987Z,991.57
2022-11-03T08:46:35.961Z,991.54
2022-11-03T08:47:35.966Z,991.55
2022-11-03T08:48:35.950Z,991.58
2022-11-03T08:49:35.939Z,991.60
2022-11-03T08:50:35.954Z,991.50
2022-11-03T08:51:40.092Z,991.49
2022-11-03T08:52:36.913Z,991.58
2022-11-03T08:53:35.900Z,991.53
2022-11-03T08:54:35.893Z,991.44
2022-11-03T08:55:35.898Z,991.45
2022-11-03T08:56:35.871Z,991.42
2022-11-03T08:57:35.862Z,991.42
2022-11-03T08:58:35.852Z,991.42
2022-11-03T08:59:35.842Z,991.37
2022-11-03T09:00:40.522Z,991.38
2022-11-03T09:01:37.844Z,991.42
2022-11-03T09:02:35.836Z,991.40
2022-11-03T09:03:35.884Z,991.38
2022-11-03T09:04:35.790Z,991.45
2022-11-03T09:05:35.806Z,991.35
2022-11-03T09:06:35.767Z,991.39
2022-11-03T09:10:42.212Z,991.32
2022-11-03T09:11:36.715Z,991.27
2022-11-03T09:12:35.712Z,991.21
2022-11-03T09:13:35.705Z,991.22
2022-11-03T09:14:35.692Z,991.22
2022-11-03T09:15:35.685Z,991.19
2022-11-03T09:16:35.670Z,991.17
2022-11-03T09:17:35.660Z,991.17
2022-11-03T09:18:35.644Z,991.17
2022-11-03T09:19:35.660Z,991.19
2022-11-03T09:20:35.646Z,991.16
2022-11-03T09:21:35.615Z,991.23
2022-11-03T09:22:35.606Z,991.18
2022-11-03T09:23:35.603Z,991.09
2022-11-03T09:24:35.592Z,991.00
2022-11-03T09:25:35.599Z,991.08
2022-11-03T09:26:35.564Z,991.04
2022-11-03T09:27:35.555Z,991.04
2022-11-03T09:28:35.537Z,991.00
2022-11-03T09:29:58.359Z,990.96
2022-11-03T09:30:37.539Z,990.89
2022-11-03T09:31:35.520Z,990.84
2022-11-03T09:32:35.506Z,990.83
2022-11-03T09:33:35.495Z,990.79
2022-11-03T09:34:35.487Z,990.73
2022-11-03T09:35:35.504Z,990.82
2022-11-03T09:36:35.464Z,990.73
2022-11-03T09:37:35.465Z,990.72
2022-11-03T09:38:35.461Z,990.66
2022-11-03T09:39:35.429Z,990.68
2022-11-03T09:40:35.502Z,990.54
2022-11-03T09:41:55.764Z,990.51
2022-11-03T09:42:37.418Z,990.46
2022-11-03T09:43:35.396Z,990.42
2022-11-03T09:44:35.385Z,990.40
2022-11-03T09:45:36.404Z,990.26
2022-11-03T09:46:35.403Z,990.33
2022-11-03T09:47:35.359Z,990.33
2022-11-03T09:48:35.352Z,990.37
2022-11-03T09:49:35.336Z,990.42
2022-11-03T09:50:35.348Z,990.43
2022-11-03T09:51:35.319Z,990.46
2022-11-03T09:52:35.306Z,990.47
2022-11-03T09:53:35.329Z,990.46
2022-11-03T09:54:35.288Z,990.44
2022-11-03T09:55:35.287Z,990.48
2022-11-03T09:56:35.262Z,990.44
2022-11-03T09:57:35.257Z,990.44
2022-11-03T09:58:35.251Z,990.42
2022-11-03T09:59:35.234Z,990.36
2022-11-03T10:00:35.249Z,990.35
2022-11-03T10:01:35.325Z,990.33
2022-11-03T10:02:35.289Z,990.34
2022-11-03T10:03:35.197Z,990.33
2022-11-03T10:04:35.188Z,990.29
2022-11-03T10:05:35.197Z,990.26
2022-11-03T10:06:35.183Z,990.33
2022-11-03T10:07:35.160Z,990.23
2022-11-03T10:08:35.156Z,990.24
2022-11-03T10:09:35.150Z,990.34
2022-11-03T10:10:35.151Z,990.33
2022-11-03T10:11:35.115Z,990.29
2022-11-03T10:12:35.112Z,990.24
2022-11-03T10:13:35.117Z,990.26
2022-11-03T10:14:35.091Z,990.23
2022-11-03T10:15:35.099Z,990.21
2022-11-03T10:16:35.072Z,990.22
2022-11-03T10:17:35.080Z,990.16
2022-11-03T10:18:35.053Z,990.20
2022-11-03T10:19:35.073Z,990.17
2022-11-03T10:20:35.058Z,990.18
2022-11-03T10:21:35.026Z,990.14
2022-11-03T10:22:38.477Z,990.10
2022-11-03T10:23:37.003Z,990.02
2022-11-03T10:24:34.994Z,989.99
2022-11-03T10:25:35.000Z,990.01
2022-11-03T10:26:34.968Z,989.96
2022-11-03T10:27:34.962Z,989.96
2022-11-03T10:28:34.952Z,989.95
2022-11-03T10:29:37.350Z,989.88
2022-11-03T10:30:45.375Z,989.83
2022-11-03T10:31:36.922Z,989.85
2022-11-03T10:32:34.918Z,989.71
2022-11-03T10:33:34.907Z,989.73
2022-11-03T10:34:34.895Z,989.77
2022-11-03T10:35:34.908Z,989.73
2022-11-03T10:36:34.872Z,989.72
2022-11-03T10:37:34.874Z,989.71
2022-11-03T10:38:34.855Z,989.74
2022-11-03T10:39:34.847Z,989.69
2022-11-03T10:40:49.168Z,989.71
2022-11-03T10:41:36.825Z,989.67
2022-11-03T10:42:35.912Z,989.60
2022-11-03T10:43:35.828Z,989.64
2022-11-03T10:44:34.792Z,989.63
2022-11-03T10:45:34.805Z,989.57
2022-11-03T10:46:51.558Z,989.55
2022-11-03T10:47:36.769Z,989.56
2022-11-03T10:48:34.759Z,989.50
2022-11-03T10:49:37.701Z,989.48
2022-11-03T10:50:35.755Z,989.44
2022-11-03T10:51:34.719Z,989.46
2022-11-03T10:53:34.709Z,989.41
2022-11-03T10:54:34.697Z,989.38
2022-11-03T10:55:34.753Z,989.41
2022-11-03T10:56:34.674Z,989.46
2022-11-03T10:57:34.669Z,989.34
2022-11-03T10:58:34.658Z,989.30
2022-11-03T10:59:34.680Z,989.33
2022-11-03T11:00:34.658Z,989.30
2022-11-03T11:01:34.786Z,989.23
2022-11-03T11:02:34.673Z,989.18
2022-11-03T11:03:34.602Z,989.16
2022-11-03T11:04:34.643Z,989.12
2022-11-03T11:05:34.611Z,989.20
2022-11-03T11:06:34.575Z,989.08
2022-11-03T11:07:34.555Z,989.15
2022-11-03T11:08:34.619Z,989.10
2022-11-03T11:09:34.546Z,989.07
2022-11-03T11:10:34.566Z,989.08
2022-11-03T11:11:34.528Z,989.09
2022-11-03T11:12:34.522Z,989.03
2022-11-03T11:13:34.535Z,988.97
2022-11-03T11:14:34.495Z,988.97
2022-11-03T11:15:34.511Z,988.92
2022-11-03T11:16:34.487Z,988.85
2022-11-03T11:17:34.472Z,988.83
2022-11-03T11:18:34.462Z,988.79
2022-11-03T11:19:34.449Z,988.81
2022-11-03T11:20:34.441Z,988.78
2022-11-03T11:21:35.734Z,988.75
2022-11-03T11:22:34.427Z,988.78
2022-11-03T11:23:34.417Z,988.65
2022-11-03T11:24:34.404Z,988.63
2022-11-03T11:25:34.423Z,988.68
2022-11-03T11:26:34.382Z,988.55
2022-11-03T11:27:34.373Z,988.61
2022-11-03T11:28:34.363Z,988.53
2022-11-03T11:29:34.354Z,988.53
2022-11-03T11:30:34.349Z,988.54
2022-11-03T11:31:34.360Z,988.68
2022-11-03T11:32:34.359Z,988.55
2022-11-03T11:33:34.335Z,988.47
2022-11-03T11:34:34.309Z,988.50
2022-11-03T11:35:34.301Z,988.44
2022-11-03T11:36:34.309Z,988.41
2022-11-03T11:37:34.278Z,988.47
2022-11-03T11:38:34.274Z,988.35
2022-11-03T11:39:34.251Z,988.41
2022-11-03T11:40:34.251Z,988.32
2022-11-03T11:41:34.261Z,988.25
2022-11-03T11:42:36.446Z,988.25
2022-11-03T11:43:34.230Z,988.27
2022-11-03T11:44:34.210Z,988.21
2022-11-03T11:45:34.231Z,988.25
2022-11-03T11:46:34.211Z,988.22
2022-11-03T11:47:34.172Z,988.19
2022-11-03T11:50:16.495Z,988.12
2022-11-03T11:51:16.528Z,988.14
2022-11-03T11:52:19.230Z,988.08
2022-11-03T11:53:16.480Z,988.14
2022-11-03T11:54:17.834Z,988.06
2022-11-03T11:55:16.467Z,988.02
2022-11-03T11:56:17.597Z,988.03
2022-11-03T11:57:17.567Z,988.04
2022-11-03T11:58:17.562Z,988.04
2022-11-03T11:59:23.012Z,988.08
2022-11-03T12:00:19.545Z,987.99
2022-11-03T12:01:17.597Z,987.93
2022-11-03T12:02:17.524Z,987.84
2022-11-03T12:03:17.583Z,987.72
2022-11-03T12:05:17.499Z,987.75
2022-11-03T12:06:17.503Z,987.79
2022-11-03T12:07:17.474Z,987.78
2022-11-03T12:08:17.462Z,987.76
2022-11-03T12:09:17.455Z,987.77
2022-11-03T12:10:17.444Z,987.79
2022-11-03T12:11:17.492Z,987.66
2022-11-03T12:12:17.409Z,987.73
2022-11-03T12:13:17.417Z,987.63
2022-11-03T12:14:17.403Z,987.64
2022-11-03T12:15:17.411Z,987.60
2022-11-03T12:16:17.391Z,987.60
2022-11-03T12:17:17.373Z,987.55
2022-11-03T12:18:17.366Z,987.53
2022-11-03T12:19:17.352Z,987.59
2022-11-03T12:20:17.333Z,987.54
2022-11-03T12:21:17.366Z,987.42
2022-11-03T12:22:17.321Z,987.39
2022-11-03T12:23:17.311Z,987.35
2022-11-03T12:24:17.291Z,987.28
2022-11-03T12:25:17.304Z,987.26
2022-11-03T12:26:17.297Z,987.16
2022-11-03T12:27:17.268Z,987.18
2022-11-03T12:28:17.248Z,987.08
2022-11-03T12:29:17.253Z,987.06
2022-11-03T12:30:17.239Z,987.01
2022-11-03T12:31:17.252Z,987.02
2022-11-03T12:32:32.627Z,987.00
2022-11-03T12:33:18.216Z,986.91
2022-11-03T12:34:17.207Z,986.89
2022-11-03T12:35:17.214Z,986.86